createdAt,value
2018-09-19T00:01:01.416Z,17.40
2018-09-19T00:03:30.136Z,17.30
2018-09-19T00:05:59.033Z,17.20
2018-09-19T00:08:28.229Z,17.20
2018-09-19T00:10:57.579Z,17.10
2018-09-19T00:13:26.332Z,17.10
2018-09-19T00:15:55.321Z,17.10
2018-09-19T00:18:23.902Z,17.00
2018-09-19T00:20:52.475Z,17.20
2018-09-19T00:23:21.090Z,17.20
2018-09-19T00:25:55.336Z,17.30
2018-09-19T00:28:24.021Z,17.40
2018-09-19T00:30:52.744Z,17.40
2018-09-19T00:33:21.601Z,17.50
2018-09-19T00:35:50.384Z,17.50
2018-09-19T00:38:19.104Z,17.50
2018-09-19T00:40:47.844Z,17.50
2018-09-19T00:43:16.573Z,17.60
2018-09-19T00:45:45.190Z,17.50
2018-09-19T00:48:13.936Z,17.50
2018-09-19T00:50:42.694Z,17.50
2018-09-19T00:53:11.910Z,17.50
2018-09-19T00:55:40.653Z,17.40
2018-09-19T00:58:09.315Z,17.30
2018-09-19T01:00:37.991Z,17.30
2018-09-19T01:03:06.636Z,17.40
2018-09-19T01:05:35.398Z,17.40
2018-09-19T01:08:04.208Z,17.40
2018-09-19T01:10:32.976Z,17.40
2018-09-19T01:13:01.745Z,17.30
2018-09-19T01:15:31.041Z,17.20
2018-09-19T01:17:59.701Z,17.10
2018-09-19T01:20:28.300Z,17.00
2018-09-19T01:22:56.870Z,16.80
2018-09-19T01:25:25.560Z,16.80
2018-09-19T01:27:54.221Z,16.70
2018-09-19T01:30:22.955Z,16.70
2018-09-19T01:32:52.357Z,16.70
2018-09-19T01:35:21.591Z,16.70
2018-09-19T01:37:50.376Z,16.70
2018-09-19T01:40:19.176Z,16.60
2018-09-19T01:42:47.889Z,16.50
2018-09-19T01:45:16.596Z,16.50
2018-09-19T01:47:45.227Z,16.50
2018-09-19T01:50:14.352Z,16.60
2018-09-19T01:52:43.138Z,16.60
2018-09-19T01:55:11.877Z,16.60
2018-09-19T01:57:40.676Z,16.60
2018-09-19T02:00:09.335Z,16.70
2018-09-19T02:02:38.104Z,16.60
2018-09-19T02:05:07.113Z,16.60
2018-09-19T02:07:36.219Z,16.50
2018-09-19T02:10:05.037Z,16.50
2018-09-19T02:12:33.852Z,16.50
2018-09-19T02:15:02.748Z,16.60
2018-09-19T02:17:32.390Z,16.60
2018-09-19T02:20:01.031Z,16.70
2018-09-19T02:22:29.638Z,16.70
2018-09-19T02:24:58.305Z,16.70
2018-09-19T02:27:27.015Z,16.70
2018-09-19T02:29:55.733Z,16.70
2018-09-19T02:32:24.413Z,16.90
2018-09-19T02:34:53.121Z,17.30
2018-09-19T02:37:21.832Z,17.40
2018-09-19T02:39:50.545Z,17.30
2018-09-19T02:42:19.244Z,17.30
2018-09-19T02:44:47.912Z,17.30
2018-09-19T02:47:16.555Z,17.30
2018-09-19T02:49:45.272Z,17.20
2018-09-19T02:52:13.969Z,17.00
2018-09-19T02:54:42.561Z,16.90
2018-09-19T02:57:11.146Z,16.90
2018-09-19T02:59:39.773Z,16.90
2018-09-19T03:02:08.359Z,16.80
2018-09-19T03:04:37.848Z,16.70
2018-09-19T03:07:06.442Z,16.60
2018-09-19T03:09:35.034Z,16.50
2018-09-19T03:12:03.991Z,16.40
2018-09-19T03:14:32.588Z,16.50
2018-09-19T03:17:01.243Z,16.30
2018-09-19T03:19:29.804Z,16.20
2018-09-19T03:21:58.351Z,16.10
2018-09-19T03:24:27.412Z,16.00
2018-09-19T03:26:56.118Z,16.10
2018-09-19T03:29:24.824Z,16.00
2018-09-19T03:31:53.538Z,16.00
2018-09-19T03:34:22.177Z,16.00
2018-09-19T03:36:50.868Z,16.00
2018-09-19T03:39:19.575Z,16.00
2018-09-19T03:41:48.896Z,16.00
2018-09-19T03:44:17.564Z,16.10
2018-09-19T03:46:46.261Z,16.10
2018-09-19T03:49:14.986Z,16.10
2018-09-19T03:51:44.325Z,16.10
2018-09-19T03:54:13.009Z,16.10
2018-09-19T03:56:41.708Z,16.10
2018-09-19T03:59:10.368Z,16.20
2018-09-19T04:01:39.350Z,16.20
2018-09-19T04:04:08.010Z,16.20
2018-09-19T04:06:36.682Z,16.30
2018-09-19T04:09:10.366Z,16.30
2018-09-19T04:11:39.341Z,16.40
2018-09-19T04:14:08.916Z,16.40
2018-09-19T04:16:37.858Z,16.30
2018-09-19T04:19:06.557Z,16.30
2018-09-19T04:21:40.184Z,16.30
2018-09-19T04:24:08.935Z,16.30
2018-09-19T04:26:37.527Z,16.30
2018-09-19T04:29:06.266Z,16.20
2018-09-19T04:31:34.838Z,16.30
2018-09-19T04:34:03.561Z,16.30
2018-09-19T04:36:32.335Z,16.40
2018-09-19T04:39:01.061Z,16.30
2018-09-19T04:41:29.836Z,16.40
2018-09-19T04:43:58.434Z,16.50
2018-09-19T04:46:27.073Z,16.40
2018-09-19T04:48:56.267Z,16.40
2018-09-19T04:51:25.163Z,16.40
2018-09-19T04:53:54.185Z,16.40
2018-09-19T04:56:22.911Z,16.40
2018-09-19T04:58:53.397Z,16.40
2018-09-19T05:01:22.213Z,16.40
2018-09-19T05:03:50.996Z,16.40
2018-09-19T05:06:19.760Z,16.40
2018-09-19T05:08:48.546Z,16.40
2018-09-19T05:11:17.414Z,16.40
2018-09-19T05:13:46.343Z,16.40
2018-09-19T05:16:15.118Z,16.40
2018-09-19T05:18:43.873Z,16.40
2018-09-19T05:21:12.671Z,16.50
2018-09-19T05:23:42.067Z,16.50
2018-09-19T05:26:10.806Z,16.50
2018-09-19T05:28:39.452Z,16.50
2018-09-19T05:31:08.213Z,16.60
2018-09-19T05:33:36.824Z,16.60
2018-09-19T05:36:05.517Z,16.70
2018-09-19T05:38:34.146Z,16.80
2018-09-19T05:41:03.230Z,16.80
2018-09-19T05:43:31.912Z,16.70
2018-09-19T05:46:00.710Z,16.70
2018-09-19T05:48:29.456Z,16.70
2018-09-19T05:50:59.139Z,16.80
2018-09-19T05:53:28.093Z,16.90
2018-09-19T05:55:56.792Z,17.00
2018-09-19T05:58:25.847Z,17.00
2018-09-19T06:00:54.738Z,16.90
2018-09-19T06:03:23.536Z,16.90
2018-09-19T06:05:52.281Z,16.90
2018-09-19T06:08:20.963Z,17.00
2018-09-19T06:10:50.581Z,17.00
2018-09-19T06:13:19.240Z,17.00
2018-09-19T06:15:48.394Z,17.00
2018-09-19T06:18:17.240Z,17.10
2018-09-19T06:20:46.127Z,17.10
2018-09-19T06:23:14.893Z,17.30
2018-09-19T06:25:43.628Z,17.30
2018-09-19T06:28:12.354Z,17.30
2018-09-19T06:30:41.326Z,17.40
2018-09-19T06:33:10.219Z,17.50
2018-09-19T06:35:38.776Z,17.50
2018-09-19T06:38:07.504Z,17.60
2018-09-19T06:40:36.341Z,17.80
2018-09-19T06:43:05.257Z,18.10
2018-09-19T06:45:33.960Z,18.10
2018-09-19T06:48:02.579Z,18.20
2018-09-19T06:50:31.219Z,18.30
2018-09-19T06:52:59.901Z,18.30
2018-09-19T06:55:28.673Z,18.40
2018-09-19T06:57:58.041Z,18.60
2018-09-19T07:00:26.741Z,18.80
2018-09-19T07:02:55.441Z,18.90
2018-09-19T07:05:24.149Z,19.10
2018-09-19T07:07:52.866Z,19.10
2018-09-19T07:10:21.648Z,19.40
2018-09-19T07:12:50.281Z,19.60
2018-09-19T07:15:18.891Z,19.70
2018-09-19T07:17:47.481Z,19.70
2018-09-19T07:20:16.103Z,19.90
2018-09-19T07:22:44.699Z,20.00
2018-09-19T07:25:13.419Z,20.10
2018-09-19T07:27:42.316Z,20.20
2018-09-19T07:30:11.346Z,20.30
2018-09-19T07:32:39.937Z,20.30
2018-09-19T07:35:08.551Z,20.60
2018-09-19T07:37:37.195Z,20.60
2018-09-19T07:40:05.891Z,20.60
2018-09-19T07:42:34.496Z,20.40
2018-09-19T07:45:03.230Z,20.40
2018-09-19T07:47:31.925Z,20.30
2018-09-19T07:50:01.170Z,20.40
2018-09-19T07:52:29.871Z,20.60
2018-09-19T07:54:58.574Z,20.80
2018-09-19T07:57:27.291Z,20.80
2018-09-19T07:59:55.994Z,20.90
2018-09-19T08:02:24.678Z,21.10
2018-09-19T08:04:53.860Z,21.30
2018-09-19T08:07:22.450Z,21.40
2018-09-19T08:09:51.085Z,21.60
2018-09-19T08:12:19.660Z,21.70
2018-09-19T08:14:48.840Z,21.80
2018-09-19T08:17:17.404Z,22.10
2018-09-19T08:19:46.025Z,22.30
2018-09-19T08:22:14.694Z,22.50
2018-09-19T08:24:43.373Z,22.60
2018-09-19T08:27:12.100Z,22.80
2018-09-19T08:29:40.769Z,23.00
2018-09-19T08:32:09.439Z,23.30
2018-09-19T08:34:38.126Z,23.20
2018-09-19T08:37:06.805Z,23.80
2018-09-19T08:39:42.256Z,23.70
2018-09-19T08:42:11.073Z,23.80
2018-09-19T08:44:39.896Z,23.70
2018-09-19T08:47:08.627Z,24.00
2018-09-19T08:49:37.294Z,24.40
2018-09-19T08:52:06.019Z,24.50
2018-09-19T08:54:34.730Z,24.60
2018-09-19T08:57:03.502Z,24.80
2018-09-19T08:59:32.140Z,25.00
2018-09-19T09:02:01.667Z,25.30
2018-09-19T09:07:33.244Z,25.80
2018-09-19T09:10:01.927Z,26.10
2018-09-19T09:12:31.263Z,26.40
2018-09-19T09:14:59.949Z,26.80
2018-09-19T09:17:28.597Z,27.10
2018-09-19T09:19:57.285Z,27.30
2018-09-19T09:22:25.994Z,27.10
2018-09-19T09:24:54.659Z,27.00
2018-09-19T09:27:23.494Z,27.70
2018-09-19T09:29:52.260Z,28.10
2018-09-19T09:32:21.050Z,27.90
2018-09-19T09:34:49.920Z,28.00
2018-09-19T09:37:18.748Z,28.40
2018-09-19T09:39:47.563Z,28.50
2018-09-19T09:42:16.312Z,28.50
2018-09-19T09:44:45.081Z,28.70
2018-09-19T09:47:14.067Z,28.60
2018-09-19T09:49:42.642Z,28.80
2018-09-19T09:52:11.243Z,29.30
2018-09-19T09:54:39.895Z,29.20
2018-09-19T09:57:08.568Z,28.80
2018-09-19T09:59:37.447Z,29.10
2018-09-19T10:02:06.168Z,29.40
2018-09-19T10:04:34.851Z,29.80
2018-09-19T10:07:03.593Z,30.20
2018-09-19T10:09:32.280Z,30.30
2018-09-19T10:12:00.955Z,30.60
2018-09-19T10:14:29.623Z,30.60
2018-09-19T10:16:58.225Z,31.00
2018-09-19T10:19:26.815Z,31.20
2018-09-19T10:21:55.555Z,31.30
2018-09-19T10:24:24.165Z,31.40
2018-09-19T10:26:52.760Z,31.40
2018-09-19T10:29:21.358Z,31.20
2018-09-19T10:31:49.980Z,31.00
2018-09-19T10:34:18.555Z,31.60
2018-09-19T10:36:47.181Z,31.90
2018-09-19T10:39:15.784Z,32.00
2018-09-19T10:41:44.352Z,31.70
2018-09-19T10:44:13.024Z,31.60
2018-09-19T10:46:41.653Z,31.40
2018-09-19T10:49:10.351Z,31.60
2018-09-19T10:51:39.010Z,31.70
2018-09-19T10:54:08.356Z,32.00
2018-09-19T10:56:37.043Z,31.80
2018-09-19T10:59:05.845Z,31.60
2018-09-19T11:01:34.528Z,31.70
2018-09-19T11:04:03.252Z,31.60
2018-09-19T11:06:31.941Z,31.30
2018-09-19T11:09:00.549Z,31.70
2018-09-19T11:11:29.119Z,32.70
2018-09-19T11:13:57.732Z,33.10
2018-09-19T11:16:26.440Z,33.40
2018-09-19T11:18:55.140Z,33.20
2018-09-19T11:21:23.801Z,33.20
2018-09-19T11:23:52.662Z,33.20
2018-09-19T11:26:21.561Z,33.60
2018-09-19T11:28:50.392Z,33.40
2018-09-19T11:31:19.074Z,33.10
2018-09-19T11:33:47.718Z,33.20
2018-09-19T11:36:16.412Z,32.90
2018-09-19T11:38:45.036Z,33.50
2018-09-19T11:41:13.655Z,33.80
2018-09-19T11:43:42.245Z,34.00
2018-09-19T11:46:11.010Z,34.30
2018-09-19T11:48:39.726Z,34.50
2018-09-19T11:51:08.499Z,34.40
2018-09-19T11:53:37.196Z,34.50
2018-09-19T11:56:05.975Z,34.60
2018-09-19T11:58:34.670Z,34.50
2018-09-19T12:01:03.325Z,34.60
2018-09-19T12:03:31.967Z,33.50
2018-09-19T12:06:00.817Z,32.40
2018-09-19T12:08:29.689Z,32.40
2018-09-19T12:10:58.415Z,32.70
2018-09-19T12:13:27.148Z,33.30
2018-09-19T12:15:56.016Z,33.10
2018-09-19T12:18:24.860Z,32.60
2018-09-19T12:20:53.648Z,32.40
2018-09-19T12:23:22.249Z,32.10
2018-09-19T12:25:50.892Z,32.40
2018-09-19T12:28:19.611Z,32.30
2018-09-19T12:30:48.564Z,32.40
2018-09-19T12:33:17.374Z,32.50
2018-09-19T12:35:46.193Z,33.20
2018-09-19T12:38:15.931Z,33.70
2018-09-19T12:40:44.637Z,34.00
2018-09-19T12:43:13.390Z,34.30
2018-09-19T12:45:42.119Z,34.50
2018-09-19T12:48:10.898Z,34.80
2018-09-19T12:50:39.541Z,34.40
2018-09-19T12:53:08.193Z,34.50
2018-09-19T12:55:36.905Z,34.30
2018-09-19T12:58:11.210Z,34.20
2018-09-19T13:00:40.038Z,34.60
2018-09-19T13:03:08.755Z,34.20
2018-09-19T13:05:37.931Z,33.70
2018-09-19T13:08:08.483Z,34.00
2018-09-19T13:10:37.211Z,34.30
2018-09-19T13:13:05.943Z,34.20
2018-09-19T13:15:34.662Z,34.30
2018-09-19T13:18:03.653Z,34.30
2018-09-19T13:20:32.435Z,34.50
2018-09-19T13:23:01.438Z,34.00
2018-09-19T13:25:30.208Z,33.50
2018-09-19T13:27:58.960Z,32.70
2018-09-19T13:30:27.735Z,31.80
2018-09-19T13:32:56.464Z,31.20
2018-09-19T13:35:25.272Z,30.60
2018-09-19T13:37:54.016Z,30.20
2018-09-19T13:40:22.736Z,30.00
2018-09-19T13:42:52.631Z,29.70
2018-09-19T13:45:22.244Z,29.80
2018-09-19T13:47:56.542Z,29.50
2018-09-19T13:50:37.845Z,29.30
2018-09-19T13:53:06.833Z,29.10
2018-09-19T13:55:35.594Z,29.10
2018-09-19T13:58:04.299Z,29.10
2018-09-19T14:00:33.076Z,29.00
2018-09-19T14:03:01.766Z,29.20
2018-09-19T14:05:30.531Z,29.20
2018-09-19T14:07:59.385Z,29.20
2018-09-19T14:10:28.123Z,29.10
2018-09-19T14:12:56.943Z,29.00
2018-09-19T14:15:26.018Z,28.80
2018-09-19T14:17:54.749Z,28.80
2018-09-19T14:20:23.471Z,28.90
2018-09-19T14:22:52.343Z,28.70
2018-09-19T14:25:21.156Z,28.60
2018-09-19T14:27:49.969Z,28.50
2018-09-19T14:30:18.744Z,28.50
2018-09-19T14:32:48.291Z,28.40
2018-09-19T14:35:17.088Z,28.60
2018-09-19T14:37:46.659Z,28.40
2018-09-19T14:40:15.839Z,28.30
2018-09-19T14:42:44.571Z,28.20
2018-09-19T14:45:13.372Z,28.10
2018-09-19T14:47:42.156Z,28.10
2018-09-19T14:50:10.886Z,28.10
2018-09-19T14:52:40.330Z,28.10
2018-09-19T14:55:09.177Z,28.00
2018-09-19T14:57:38.020Z,27.90
2018-09-19T15:00:07.538Z,27.80
2018-09-19T15:02:41.907Z,27.60
2018-09-19T15:05:12.019Z,27.30
2018-09-19T15:07:46.117Z,26.80
2018-09-19T15:10:14.777Z,26.30
2018-09-19T15:12:43.541Z,25.80
2018-09-19T15:15:12.116Z,25.20
2018-09-19T15:17:46.367Z,24.60
2018-09-19T15:20:15.102Z,24.20
2018-09-19T15:22:43.751Z,23.60
2018-09-19T15:25:12.464Z,23.30
2018-09-19T15:27:41.122Z,23.10
2018-09-19T15:30:09.805Z,23.00
2018-09-19T15:32:39.317Z,23.00
2018-09-19T15:35:07.981Z,23.00
2018-09-19T15:37:36.751Z,23.00
2018-09-19T15:40:06.013Z,22.80
2018-09-19T15:42:35.823Z,21.80
2018-09-19T15:45:04.652Z,21.40
2018-09-19T15:56:34.148Z,19.80
2018-09-19T15:59:03.052Z,19.60
2018-09-19T16:01:31.908Z,19.60
2018-09-19T16:04:00.611Z,19.60
2018-09-19T16:06:30.317Z,19.70
2018-09-19T16:08:58.946Z,19.80
2018-09-19T16:11:27.626Z,19.90
2018-09-19T16:13:56.257Z,19.80
2018-09-19T16:16:25.189Z,19.80
2018-09-19T16:18:54.445Z,19.80
2018-09-19T16:21:24.196Z,19.90
2018-09-19T16:23:53.158Z,19.90
2018-09-19T16:26:21.916Z,19.90
2018-09-19T16:28:50.987Z,19.90
2018-09-19T16:31:19.815Z,19.90
2018-09-19T16:33:48.506Z,19.90
2018-09-19T16:36:17.254Z,19.90
2018-09-19T16:38:45.914Z,19.80
2018-09-19T16:41:14.714Z,19.80
2018-09-19T16:43:43.741Z,19.80
2018-09-19T16:46:12.597Z,19.70
2018-09-19T16:48:41.356Z,19.70
2018-09-19T16:51:10.236Z,19.70
2018-09-19T16:53:39.117Z,19.80
2018-09-19T16:56:07.929Z,19.90
2018-09-19T16:58:37.046Z,20.00
2018-09-19T17:01:05.911Z,19.90
2018-09-19T17:03:35.256Z,20.10
2018-09-19T17:06:05.969Z,20.10
2018-09-19T17:08:35.245Z,20.10
2018-09-19T17:11:05.509Z,20.10
2018-09-19T17:13:34.644Z,20.00
2018-09-19T17:16:03.939Z,19.90
2018-09-19T17:18:33.077Z,19.90
2018-09-19T17:21:05.762Z,19.80
2018-09-19T17:23:35.011Z,19.80
2018-09-19T17:26:04.426Z,19.90
2018-09-19T17:28:34.584Z,19.90
2018-09-19T17:31:04.861Z,19.90
2018-09-19T17:33:33.916Z,19.90
2018-09-19T17:36:05.301Z,19.90
2018-09-19T17:38:34.076Z,19.90
2018-09-19T17:41:02.894Z,19.90
2018-09-19T17:43:31.875Z,19.90
2018-09-19T17:46:00.887Z,19.90
2018-09-19T17:48:29.922Z,19.90
2018-09-19T17:50:59.491Z,19.90
2018-09-19T17:53:30.095Z,19.90
2018-09-19T17:55:59.346Z,20.00
2018-09-19T17:58:28.997Z,19.90
2018-09-19T18:01:00.343Z,19.90
2018-09-19T18:03:30.652Z,19.90
2018-09-19T18:05:59.541Z,19.80
2018-09-19T18:08:28.483Z,19.80
2018-09-19T18:10:57.197Z,19.70
2018-09-19T18:13:25.921Z,19.70
2018-09-19T18:15:54.809Z,19.70
2018-09-19T18:18:25.981Z,19.60
2018-09-19T18:20:55.985Z,19.60
2018-09-19T18:23:24.709Z,19.60
2018-09-19T18:25:53.445Z,19.50
2018-09-19T18:28:22.189Z,19.40
2018-09-19T18:30:51.229Z,19.50
2018-09-19T18:33:20.793Z,19.50
2018-09-19T18:35:49.708Z,19.60
2018-09-19T18:38:18.543Z,19.60
2018-09-19T18:40:47.389Z,19.60
2018-09-19T18:43:16.295Z,19.60
2018-09-19T18:45:45.195Z,19.60
2018-09-19T18:48:14.854Z,19.60
2018-09-19T18:50:43.936Z,19.60
2018-09-19T18:53:12.861Z,19.50
2018-09-19T18:55:41.968Z,19.50
2018-09-19T18:58:10.760Z,19.50
2018-09-19T19:00:39.650Z,19.50
2018-09-19T19:03:08.356Z,19.50
2018-09-19T19:05:37.156Z,19.40
2018-09-19T19:08:06.332Z,19.40
2018-09-19T19:10:35.721Z,19.40
2018-09-19T19:13:04.560Z,19.30
2018-09-19T19:15:33.389Z,19.40
2018-09-19T19:18:02.882Z,19.30
2018-09-19T19:20:33.429Z,19.40
2018-09-19T19:23:02.313Z,19.40
2018-09-19T19:25:31.065Z,19.40
2018-09-19T19:27:59.932Z,19.30
2018-09-19T19:30:28.890Z,19.30
2018-09-19T19:32:57.750Z,19.30
2018-09-19T19:35:27.617Z,19.30
2018-09-19T19:37:56.724Z,19.40
2018-09-19T19:40:25.986Z,19.30
2018-09-19T19:42:54.820Z,19.30
2018-09-19T19:45:23.588Z,19.20
2018-09-19T19:47:52.379Z,19.20
2018-09-19T19:50:21.136Z,19.20
2018-09-19T19:52:49.928Z,19.20
2018-09-19T19:55:18.696Z,19.20
2018-09-19T19:57:47.474Z,19.30
2018-09-19T20:00:16.276Z,19.30
2018-09-19T20:02:45.042Z,19.30
2018-09-19T20:05:13.763Z,19.30
2018-09-19T20:07:42.567Z,19.20
2018-09-19T20:10:11.848Z,19.30
2018-09-19T20:12:40.663Z,19.30
2018-09-19T20:15:09.476Z,19.30
2018-09-19T20:17:38.356Z,19.20
2018-09-19T20:20:07.656Z,19.20
2018-09-19T20:22:36.506Z,19.20
2018-09-19T20:25:05.417Z,19.20
2018-09-19T20:27:34.326Z,19.20
2018-09-19T20:30:04.056Z,19.10
2018-09-19T20:32:32.894Z,19.20
2018-09-19T20:35:01.797Z,19.10
2018-09-19T20:37:30.551Z,19.10
2018-09-19T20:39:59.303Z,19.10
2018-09-19T20:42:28.201Z,19.10
2018-09-19T20:44:56.876Z,19.10
2018-09-19T20:47:25.701Z,19.10
2018-09-19T20:49:54.431Z,19.10
2018-09-19T20:52:23.217Z,19.10
2018-09-19T20:54:52.005Z,19.10
2018-09-19T20:57:20.757Z,19.10
2018-09-19T20:59:49.603Z,19.10
2018-09-19T21:02:18.319Z,19.20
2018-09-19T21:04:47.079Z,19.10
2018-09-19T21:07:15.927Z,19.20
2018-09-19T21:09:45.155Z,19.10
2018-09-19T21:12:13.922Z,19.10
2018-09-19T21:14:42.909Z,19.10
2018-09-19T21:17:11.683Z,19.00
2018-09-19T21:19:40.375Z,19.10
2018-09-19T21:22:09.240Z,19.00
2018-09-19T21:24:37.975Z,19.00
2018-09-19T21:27:06.740Z,19.00
2018-09-19T21:29:35.401Z,19.00
2018-09-19T21:32:04.102Z,19.00
2018-09-19T21:34:32.859Z,19.00
2018-09-19T21:37:01.676Z,19.00
2018-09-19T21:39:30.666Z,19.00
2018-09-19T21:41:59.377Z,19.00
2018-09-19T21:44:28.038Z,19.00
2018-09-19T21:46:56.708Z,19.00
2018-09-19T21:49:25.399Z,19.00
2018-09-19T21:51:54.061Z,19.00
2018-09-19T21:54:22.763Z,19.00
2018-09-19T21:56:51.510Z,19.00
2018-09-19T21:59:20.221Z,19.00
2018-09-19T22:01:53.504Z,19.00
2018-09-19T22:04:22.256Z,19.00
2018-09-19T22:06:50.966Z,19.00
2018-09-19T22:09:19.611Z,19.00
2018-09-19T22:11:48.271Z,18.90
2018-09-19T22:14:16.913Z,19.00
2018-09-19T22:16:45.868Z,19.10
2018-09-19T22:19:14.536Z,19.10
2018-09-19T22:21:43.213Z,19.10
2018-09-19T22:24:11.888Z,19.00
2018-09-19T22:26:40.536Z,19.00
2018-09-19T22:29:09.189Z,19.00
2018-09-19T22:31:37.893Z,19.10
2018-09-19T22:34:06.662Z,19.00
2018-09-19T22:36:36.283Z,18.90
2018-09-19T22:39:07.447Z,18.90
2018-09-19T22:41:36.997Z,19.10
2018-09-19T22:44:05.896Z,19.10
2018-09-19T22:46:34.669Z,19.10
2018-09-19T22:49:03.383Z,19.00
2018-09-19T22:51:32.561Z,19.00
2018-09-19T22:54:01.302Z,18.90
2018-09-19T22:56:29.981Z,18.90
2018-09-19T22:59:03.783Z,18.90
2018-09-19T23:01:33.078Z,18.90
2018-09-19T23:04:02.806Z,18.80
2018-09-19T23:06:31.640Z,18.90
2018-09-19T23:09:00.284Z,18.80
2018-09-19T23:11:28.966Z,18.80
2018-09-19T23:13:57.614Z,18.80
2018-09-19T23:16:26.280Z,18.80
2018-09-19T23:18:54.999Z,18.80
2018-09-19T23:21:23.675Z,18.80
2018-09-19T23:23:52.395Z,18.80
2018-09-19T23:26:21.035Z,18.80
2018-09-19T23:28:49.648Z,18.80
2018-09-19T23:31:18.249Z,18.70
2018-09-19T23:33:46.888Z,18.70
2018-09-19T23:36:15.560Z,18.80
2018-09-19T23:38:44.305Z,18.70
2018-09-19T23:41:13.028Z,18.80
2018-09-19T23:43:41.669Z,18.80
2018-09-19T23:46:10.568Z,18.80
2018-09-19T23:48:46.055Z,18.70
2018-09-19T23:51:14.704Z,18.60
2018-09-19T23:53:43.356Z,18.60
2018-09-19T23:56:12.116Z,18.60
2018-09-19T23:58:40.769Z,18.70
